»·PEaware :: ASA1221 KLAS-KSLC

ASA1221 :: KLAS-KSLC

FLIGHT INFORMATION

Flight Status: Arrived
Operator:
Alaska Airlines
More flights by this operator :: More flights under this callsign
Pilot: Christian H. (16685)
Aircraft: BOEING 737-800
(B738)
More flights by this aircraft type
Origin: KLAS McCarran Intl
United States
Destination: KSLC Salt Lake City Intl
United States
More flights between these airports :: More routes between these airports
Route: TRALR9 MLF QWENN5
File this flight plan on PilotEdge
Remarks:
Altitude:
(Current/Filed)
31,000ft
Speed:
(Current/Filed)
503kts
Departed: 07-Jun-18 06:39 PM
Arrived: 07-Jun-18 07:46 PM
Distance/Time
Traveled:
319nm/1:07
Distance/Time
To Go:
Arrived

Flight Plot

Page will automatically refresh every two minutes.

Flight plan parsing failed; only flown route is shown


Map Options




Map Legend


Flown Route
Filed Route
Departure Airport
Arrival Airport
Navaid (VOR, NDB)
Fix

Horizontal Profiles

Position Reports

Time Latitude Longitude Heading Altitude Ground
Speed
07-Jun-18 18:08 36.080301 -115.147294 60 2096ft 0kts
07-Jun-18 18:09 36.080301 -115.147294 60 2096ft 0kts
07-Jun-18 18:10 36.080301 -115.147294 60 2096ft 0kts
07-Jun-18 18:11 36.080301 -115.147294 60 2096ft 0kts
07-Jun-18 18:12 36.080301 -115.147294 60 2096ft 0kts
07-Jun-18 18:13 36.080301 -115.147294 60 2096ft 0kts
07-Jun-18 18:14 36.080301 -115.147294 60 2096ft 0kts
07-Jun-18 18:15 36.080301 -115.147294 60 2096ft 0kts
07-Jun-18 18:16 36.080301 -115.147294 60 2096ft 0kts
07-Jun-18 18:17 36.080301 -115.147294 60 2096ft 0kts
07-Jun-18 18:18 36.080301 -115.147294 60 2096ft 0kts
07-Jun-18 18:19 36.080301 -115.147294 60 2096ft 0kts
07-Jun-18 18:20 36.080301 -115.147294 60 2096ft 0kts
07-Jun-18 18:21 36.080301 -115.147294 60 2096ft 0kts
07-Jun-18 18:22 36.080236 -115.147731 101 2098ft 2kts
07-Jun-18 18:23 36.080508 -115.148196 153 2099ft 2kts
07-Jun-18 18:24 36.080571 -115.148231 159 2099ft 0kts
07-Jun-18 18:25 36.080571 -115.148231 159 2099ft 0kts
07-Jun-18 18:26 36.080571 -115.148231 159 2099ft 0kts
07-Jun-18 18:27 36.080570 -115.148231 159 2099ft 0kts
07-Jun-18 18:28 36.080327 -115.148108 156 2099ft 7kts
07-Jun-18 18:29 36.079074 -115.147376 155 2101ft 7kts
07-Jun-18 18:30 36.078152 -115.144703 145 2093ft 12kts
07-Jun-18 18:31 36.077536 -115.141325 90 2085ft 19kts
07-Jun-18 18:32 36.077535 -115.134440 90 2063ft 26kts
07-Jun-18 18:33 36.077537 -115.128654 90 2047ft 21kts
07-Jun-18 18:34 36.077548 -115.122658 91 2037ft 14kts
07-Jun-18 18:35 36.077395 -115.121474 131 2037ft 0kts
07-Jun-18 18:36 36.077395 -115.121474 131 2037ft 0kts
07-Jun-18 18:37 36.077382 -115.121455 131 2037ft 1kts
07-Jun-18 18:38 36.076432 -115.121816 268 2038ft 6kts
07-Jun-18 18:39 36.076429 -115.137234 269 2073ft 142kts
07-Jun-18 18:40 36.076300 -115.181850 264 3435ft 194kts
07-Jun-18 18:41 36.067884 -115.246226 233 4840ft 245kts
07-Jun-18 18:42 36.011215 -115.283300 202 6983ft 256kts
07-Jun-18 18:43 35.946430 -115.293884 167 8299ft 263kts
07-Jun-18 18:44 35.881923 -115.259766 133 10536ft 278kts
07-Jun-18 18:45 35.866803 -115.172322 91 12527ft 296kts
07-Jun-18 18:46 35.866902 -115.075798 77 14308ft 307kts
07-Jun-18 18:47 35.903259 -114.984208 59 16098ft 315kts
07-Jun-18 18:48 35.945379 -114.890077 58 17751ft 325kts
07-Jun-18 18:49 35.985504 -114.789722 62 18847ft 336kts
07-Jun-18 18:50 36.024350 -114.688666 62 18803ft 334kts
07-Jun-18 18:51 36.066103 -114.580052 62 18865ft 386kts
07-Jun-18 18:52 36.108352 -114.469658 62 18862ft 387kts
07-Jun-18 18:53 36.150508 -114.359166 62 18858ft 387kts
07-Jun-18 18:54 36.194258 -114.244279 63 18860ft 387kts
07-Jun-18 18:55 36.237148 -114.133802 62 18908ft 387kts
07-Jun-18 18:56 36.281674 -114.019029 62 18921ft 391kts
07-Jun-18 18:57 36.327551 -113.900372 62 21173ft 400kts
07-Jun-18 18:58 36.373406 -113.781303 63 22913ft 415kts
07-Jun-18 18:59 36.422643 -113.656987 51 22899ft 410kts
07-Jun-18 19:00 36.505914 -113.600036 11 22919ft 395kts
07-Jun-18 19:01 36.609112 -113.567288 10 23850ft 401kts
07-Jun-18 19:02 36.715648 -113.534713 9 25713ft 410kts
07-Jun-18 19:03 36.823719 -113.501832 9 27369ft 419kts
07-Jun-18 19:04 36.925770 -113.470765 10 28995ft 420kts
07-Jun-18 19:05 37.030458 -113.438817 10 30675ft 415kts
07-Jun-18 19:06 37.129450 -113.408572 9 30911ft 414kts
07-Jun-18 19:07 37.239051 -113.375095 10 31059ft 424kts
07-Jun-18 19:08 37.328844 -113.347496 10 31066ft 412kts
07-Jun-18 19:09 37.429199 -113.316273 11 31072ft 413kts
07-Jun-18 19:10 37.537747 -113.281395 11 31072ft 414kts
07-Jun-18 19:11 37.646530 -113.246320 11 31074ft 414kts
07-Jun-18 19:12 37.751059 -113.212525 11 31074ft 414kts
07-Jun-18 19:13 37.858155 -113.177806 11 31075ft 414kts
07-Jun-18 19:14 37.964446 -113.143230 11 31077ft 415kts
07-Jun-18 19:15 38.070820 -113.108535 11 31024ft 414kts
07-Jun-18 19:16 38.170390 -113.076011 11 31019ft 426kts
07-Jun-18 19:17 38.267326 -113.044214 11 31019ft 424kts
07-Jun-18 19:18 38.368675 -113.010222 16 31013ft 415kts
07-Jun-18 19:19 38.465691 -112.959153 20 31021ft 419kts
07-Jun-18 19:20 38.561358 -112.907570 20 31022ft 420kts
07-Jun-18 19:21 38.662735 -112.853020 20 31033ft 437kts
07-Jun-18 19:22 38.771463 -112.794467 20 31034ft 471kts
07-Jun-18 19:23 38.888252 -112.731373 20 30998ft 488kts
07-Jun-18 19:24 39.006159 -112.667449 21 30999ft 496kts
07-Jun-18 19:25 39.121922 -112.604462 21 30993ft 495kts
07-Jun-18 19:26 39.236342 -112.541979 20 30996ft 490kts
07-Jun-18 19:27 39.355787 -112.475573 21 30995ft 489kts
07-Jun-18 19:28 39.469531 -112.410098 21 29786ft 468kts
07-Jun-18 19:29 39.574388 -112.349574 22 27757ft 453kts
07-Jun-18 19:30 39.679425 -112.288837 22 25687ft 440kts
07-Jun-18 19:31 39.782553 -112.229021 22 23651ft 424kts
07-Jun-18 19:32 39.881660 -112.171363 23 21218ft 411kts
07-Jun-18 19:33 39.975601 -112.116539 23 18732ft 393kts
07-Jun-18 19:34 40.059546 -112.065986 23 16400ft 378kts
07-Jun-18 19:35 40.140012 -112.017262 24 14078ft 366kts
07-Jun-18 19:36 40.220647 -111.968300 24 11921ft 348kts
07-Jun-18 19:37 40.288361 -111.935475 5 11043ft 345kts
07-Jun-18 19:38 40.358304 -111.928695 2 11031ft 343kts
07-Jun-18 19:39 40.434228 -111.930130 353 11029ft 341kts
07-Jun-18 19:40 40.507823 -111.940739 352 10830ft 346kts
07-Jun-18 19:41 40.578193 -111.950329 354 8794ft 336kts
07-Jun-18 19:42 40.645875 -111.958183 354 7236ft 294kts
07-Jun-18 19:43 40.702147 -111.964690 352 5796ft 246kts
07-Jun-18 19:44 40.747712 -111.969579 352 4748ft 184kts
07-Jun-18 19:45 40.780862 -111.973894 353 4245ft 154kts
07-Jun-18 19:46 40.794182 -111.975734 339 4235ft 26kts
07-Jun-18 19:47 40.795503 -111.976800 307 4235ft 0kts
07-Jun-18 19:48 40.796584 -111.977864 316 4235ft 11kts
07-Jun-18 19:49 40.795133 -111.978649 175 4235ft 13kts
07-Jun-18 19:50 40.792864 -111.978401 176 4235ft 11kts
07-Jun-18 19:51 40.791616 -111.977285 169 4235ft 8kts
07-Jun-18 19:52 40.789760 -111.977713 257 4235ft 10kts
07-Jun-18 19:53 40.788918 -111.980165 248 4235ft 6kts
07-Jun-18 19:54 40.788861 -111.980553 261 4235ft 0kts
07-Jun-18 19:55 40.788861 -111.980553 261 4235ft 0kts
07-Jun-18 19:56 40.788861 -111.980553 261 4235ft 0kts

Navigation Log

Ident Type
Flight plan parsing failed, navigation log unavailable